Time;durP1;ratioP1;P1;durP2;ratioP2;P2;SDS_P1;SDS_P2;PMS_P1;PMS_P2;Temp;Humidity;BMP_temperature;BMP_pressure;BME280_temperature;BME280_humidity;BME280_pressure;Samples;Min_cycle;Max_cycle;Signal;HPM_P1;HPM_P2
2020/12/22 00:00:03;;;;;;;1.40;1.30;;;9.90;99.90;;;;;;5051713;28;20206;-74
2020/12/22 00:02:28;;;;;;;2.43;1.83;;;10.00;99.90;;;;;;5052855;28;20271;-74
2020/12/22 00:04:54;;;;;;;1.83;1.63;;;10.00;99.90;;;;;;5072105;28;20448;-74
2020/12/22 00:07:19;;;;;;;3.00;1.20;;;10.00;99.90;;;;;;5053850;28;20361;-74
2020/12/22 00:09:45;;;;;;;1.40;1.30;;;10.10;99.90;;;;;;5053448;28;20648;-74
2020/12/22 00:12:16;;;;;;;1.63;1.10;;;10.10;99.90;;;;;;5070137;28;20191;-74
2020/12/22 00:14:42;;;;;;;1.50;1.00;;;10.10;99.90;;;;;;5070488;28;20226;-74
2020/12/22 00:17:08;;;;;;;0.90;0.80;;;10.20;99.90;;;;;;5076313;28;20472;-74
2020/12/22 00:19:33;;;;;;;1.13;1.03;;;10.20;99.90;;;;;;5074570;28;20456;-74
2020/12/22 00:21:59;;;;;;;1.33;1.23;;;10.20;99.90;;;;;;5055375;28;20183;-74
2020/12/22 00:24:24;;;;;;;1.33;0.90;;;10.30;99.90;;;;;;5072410;28;20267;-74
2020/12/22 00:26:50;;;;;;;1.43;1.23;;;10.30;99.90;;;;;;5055208;28;20187;-74
2020/12/22 00:29:15;;;;;;;1.10;1.00;;;10.40;99.90;;;;;;5054405;28;20197;-74
2020/12/22 00:31:41;;;;;;;2.13;1.07;;;10.40;99.90;;;;;;5055500;28;20187;-74
2020/12/22 00:34:07;;;;;;;1.43;0.87;;;10.40;99.90;;;;;;5053702;28;20289;-74
2020/12/22 00:36:32;;;;;;;1.30;1.03;;;10.50;99.90;;;;;;5052412;28;20682;-74
2020/12/22 00:38:58;;;;;;;1.47;1.10;;;10.50;99.90;;;;;;5070272;28;20385;-74
2020/12/22 00:41:23;;;;;;;1.30;1.03;;;10.60;99.90;;;;;;5070499;28;20199;-74
2020/12/22 00:43:49;;;;;;;0.80;0.70;;;10.60;99.90;;;;;;5072687;28;20183;-74
2020/12/22 00:46:15;;;;;;;1.53;0.83;;;10.60;99.90;;;;;;5077744;28;20190;-74
2020/12/22 00:48:45;;;;;;;0.70;0.60;;;10.60;99.90;;;;;;5085536;28;20623;-74
2020/12/22 00:51:13;;;;;;;1.37;1.00;;;10.70;99.90;;;;;;5073701;28;20434;-74
2020/12/22 00:53:41;;;;;;;0.80;0.70;;;10.70;99.90;;;;;;5077366;28;20444;-74
2020/12/22 00:56:10;;;;;;;1.00;0.60;;;10.80;99.90;;;;;;5074057;28;20479;-74
2020/12/22 00:58:35;;;;;;;1.50;0.90;;;10.80;99.90;;;;;;5074178;28;20444;-74
2020/12/22 01:01:01;;;;;;;0.80;0.60;;;10.90;99.90;;;;;;5074747;28;20437;-74
2020/12/22 01:03:26;;;;;;;1.10;0.80;;;10.90;99.90;;;;;;5075956;28;20180;-74
2020/12/22 01:05:52;;;;;;;0.90;0.80;;;10.90;99.90;;;;;;5073281;28;20564;-74
2020/12/22 01:08:17;;;;;;;4.23;0.80;;;11.00;99.90;;;;;;5073259;28;20245;-74
2020/12/22 01:10:43;;;;;;;0.60;0.60;;;11.00;99.90;;;;;;5074602;28;20225;-74
2020/12/22 01:13:08;;;;;;;1.20;0.70;;;11.00;99.90;;;;;;5073943;28;20616;-74
2020/12/22 01:15:34;;;;;;;0.70;0.67;;;11.00;99.90;;;;;;5061898;28;20215;-74
2020/12/22 01:17:59;;;;;;;1.47;0.67;;;11.00;99.90;;;;;;5080876;28;20286;-74
2020/12/22 01:20:25;;;;;;;1.40;0.70;;;11.10;99.90;;;;;;5077859;28;20207;-74
2020/12/22 01:22:50;;;;;;;2.50;0.70;;;11.10;99.90;;;;;;5081449;28;20669;-74
2020/12/22 01:25:16;;;;;;;1.03;0.70;;;11.10;99.90;;;;;;5072009;28;20198;-74
2020/12/22 01:27:41;;;;;;;1.60;0.90;;;11.10;99.90;;;;;;5058944;28;20719;-74
2020/12/22 01:30:07;;;;;;;1.17;0.90;;;11.10;99.90;;;;;;5056714;28;20183;-74
2020/12/22 01:32:32;;;;;;;1.07;0.80;;;11.10;99.90;;;;;;5074660;28;20279;-74
2020/12/22 01:34:58;;;;;;;1.50;0.80;;;11.10;99.90;;;;;;5056520;28;20176;-74
2020/12/22 01:37:23;;;;;;;1.93;1.10;;;11.10;99.90;;;;;;5072603;28;20237;-74
2020/12/22 01:39:49;;;;;;;1.23;0.67;;;11.10;99.90;;;;;;5074133;28;20458;-74
2020/12/22 01:42:14;;;;;;;1.30;1.00;;;11.10;99.90;;;;;;5078837;28;20176;-74
2020/12/22 01:44:40;;;;;;;1.10;0.90;;;11.10;99.90;;;;;;5074862;28;20192;-74
2020/12/22 01:47:07;;;;;;;1.30;1.10;;;11.10;99.90;;;;;;5073577;28;20193;-74
2020/12/22 01:49:33;;;;;;;2.37;1.30;;;11.10;99.90;;;;;;5074786;28;20180;-74
2020/12/22 01:51:59;;;;;;;1.43;1.13;;;11.10;99.90;;;;;;5054739;28;20448;-74
2020/12/22 01:54:27;;;;;;;1.30;1.20;;;11.20;99.90;;;;;;5059915;28;20634;-74
2020/12/22 01:56:53;;;;;;;1.47;1.37;;;11.20;99.90;;;;;;5080539;28;20556;-74
2020/12/22 01:59:18;;;;;;;1.70;1.40;;;11.20;99.90;;;;;;5073649;28;20476;-74
2020/12/22 02:01:44;;;;;;;1.40;1.30;;;11.20;99.90;;;;;;5056082;28;20465;-74
2020/12/22 02:04:11;;;;;;;2.00;1.37;;;11.20;99.90;;;;;;5073813;28;20527;-74
2020/12/22 02:06:37;;;;;;;2.40;1.90;;;11.20;99.90;;;;;;5077009;28;20509;-74
2020/12/22 02:09:06;;;;;;;1.70;1.60;;;11.30;99.90;;;;;;5073157;28;20872;-74
2020/12/22 02:11:33;;;;;;;4.47;1.60;;;11.30;99.90;;;;;;5055945;28;20465;-74
2020/12/22 02:14:00;;;;;;;1.97;1.80;;;11.30;99.90;;;;;;5055432;28;20437;-74
2020/12/22 02:16:26;;;;;;;1.77;1.60;;;11.40;99.90;;;;;;5072893;28;20481;-74
2020/12/22 02:18:52;;;;;;;1.70;1.53;;;11.40;99.90;;;;;;5079608;28;20970;-74
2020/12/22 02:21:19;;;;;;;8.33;2.20;;;11.40;99.90;;;;;;5070614;28;20434;-74
2020/12/22 02:23:48;;;;;;;2.00;1.70;;;11.40;99.90;;;;;;5074233;28;20440;-74
2020/12/22 02:26:24;;;;;;;1.53;1.30;;;11.40;99.90;;;;;;5072331;28;20936;-74
2020/12/22 02:28:51;;;;;;;2.13;1.97;;;11.40;99.90;;;;;;5055465;28;20448;-74
2020/12/22 02:31:17;;;;;;;2.30;1.83;;;11.50;99.90;;;;;;5051966;28;20618;-74
2020/12/22 02:33:43;;;;;;;1.87;1.77;;;11.50;99.90;;;;;;5070996;28;20450;-74
2020/12/22 02:36:10;;;;;;;1.70;1.60;;;11.50;99.90;;;;;;5070719;28;20478;-74
2020/12/22 02:38:35;;;;;;;1.67;1.57;;;11.60;99.90;;;;;;5054593;28;20819;-74
2020/12/22 02:41:02;;;;;;;1.87;1.60;;;11.60;99.90;;;;;;5072724;28;20520;-74
2020/12/22 02:43:27;;;;;;;1.93;1.73;;;11.60;99.90;;;;;;5077232;28;20437;-74
2020/12/22 02:45:53;;;;;;;1.70;1.53;;;11.60;99.90;;;;;;5055345;28;20433;-74
2020/12/22 02:48:18;;;;;;;2.23;1.80;;;11.60;99.90;;;;;;5077733;28;20191;-74
2020/12/22 02:50:44;;;;;;;1.60;1.50;;;11.60;99.90;;;;;;5071813;28;20195;-74
2020/12/22 02:53:10;;;;;;;3.00;2.30;;;11.60;99.90;;;;;;5052749;28;20564;-74
2020/12/22 02:55:35;;;;;;;2.17;1.83;;;11.60;99.90;;;;;;5072140;28;20465;-75
2020/12/22 02:58:01;;;;;;;3.97;2.60;;;11.60;99.90;;;;;;5073196;28;20244;-74
2020/12/22 03:00:27;;;;;;;3.60;2.70;;;11.60;99.90;;;;;;5070816;28;20533;-74
2020/12/22 03:02:52;;;;;;;2.70;2.50;;;11.60;99.90;;;;;;5072288;28;20233;-74
2020/12/22 03:05:18;;;;;;;3.20;2.90;;;11.70;99.90;;;;;;5075071;28;20781;-74
2020/12/22 03:07:44;;;;;;;3.23;2.93;;;11.70;99.90;;;;;;5058614;28;20794;-74
2020/12/22 03:10:14;;;;;;;5.63;4.37;;;11.80;99.90;;;;;;5073887;28;20219;-74
2020/12/22 03:12:40;;;;;;;4.37;2.93;;;11.80;99.90;;;;;;5061084;28;20436;-74
2020/12/22 03:15:07;;;;;;;5.80;2.80;;;11.90;99.90;;;;;;5069942;28;20471;-74
2020/12/22 03:17:37;;;;;;;3.47;3.00;;;11.90;99.90;;;;;;5075857;28;20444;-74
2020/12/22 03:20:07;;;;;;;3.50;2.80;;;12.00;99.90;;;;;;5073922;28;20459;-74
2020/12/22 03:22:35;;;;;;;3.67;2.83;;;12.00;99.90;;;;;;5071867;28;20430;-74
2020/12/22 03:25:01;;;;;;;3.23;2.50;;;12.10;99.90;;;;;;5071195;28;20441;-74
2020/12/22 03:27:26;;;;;;;3.43;2.37;;;12.10;99.90;;;;;;5077941;28;20993;-74
2020/12/22 03:29:52;;;;;;;3.20;2.80;;;12.20;99.90;;;;;;5071447;28;20464;-74
2020/12/22 03:32:17;;;;;;;3.07;2.77;;;12.20;99.90;;;;;;5053799;28;20183;-74
2020/12/22 03:34:43;;;;;;;2.83;2.40;;;12.20;99.90;;;;;;5056517;28;20187;-74
2020/12/22 03:37:08;;;;;;;2.40;2.20;;;12.30;99.90;;;;;;5071847;28;20302;-74
2020/12/22 03:39:34;;;;;;;2.40;2.20;;;12.30;99.90;;;;;;5071076;28;20192;-74
2020/12/22 03:41:59;;;;;;;2.20;2.00;;;12.40;99.90;;;;;;5072790;28;20579;-74
2020/12/22 03:44:25;;;;;;;2.20;2.00;;;12.40;99.90;;;;;;5053792;28;20572;-74
2020/12/22 03:46:51;;;;;;;3.03;2.50;;;12.40;99.90;;;;;;5052947;28;20217;-74
2020/12/22 03:49:17;;;;;;;2.60;1.70;;;12.40;99.90;;;;;;5053008;28;20248;-75
2020/12/22 03:51:44;;;;;;;1.93;1.73;;;12.40;99.90;;;;;;5072984;28;20643;-75
2020/12/22 03:54:10;;;;;;;2.37;1.60;;;12.50;99.90;;;;;;5071634;28;20501;-75
2020/12/22 03:56:36;;;;;;;3.70;1.53;;;12.50;99.90;;;;;;5053799;28;20898;-75
2020/12/22 03:59:01;;;;;;;6.03;1.67;;;12.50;99.90;;;;;;5076135;28;20461;-75
2020/12/22 04:01:27;;;;;;;2.30;1.40;;;12.50;99.90;;;;;;5071053;28;20675;-75
2020/12/22 04:03:52;;;;;;;1.83;1.43;;;12.50;99.90;;;;;;5055838;28;20183;-75
2020/12/22 04:06:18;;;;;;;3.30;1.80;;;12.50;99.90;;;;;;5073321;28;20183;-75
2020/12/22 04:08:44;;;;;;;2.00;1.27;;;12.50;99.90;;;;;;5057456;28;20195;-75
2020/12/22 04:11:09;;;;;;;2.10;1.90;;;12.60;99.90;;;;;;5071320;28;20253;-75
2020/12/22 04:13:35;;;;;;;1.63;1.30;;;12.60;99.90;;;;;;5070777;28;20271;-75
2020/12/22 04:16:04;;;;;;;3.53;1.60;;;12.60;99.90;;;;;;5069365;28;20195;-75
2020/12/22 04:18:31;;;;;;;1.90;1.57;;;12.60;99.90;;;;;;5068973;28;20442;-75
2020/12/22 04:21:00;;;;;;;2.80;2.30;;;12.60;99.90;;;;;;5074339;28;20545;-75
2020/12/22 04:23:26;;;;;;;2.33;1.67;;;12.70;99.90;;;;;;5079186;28;20432;-75
2020/12/22 04:25:52;;;;;;;2.33;1.30;;;12.70;99.90;;;;;;5073312;28;20445;-75
2020/12/22 04:28:18;;;;;;;1.30;1.10;;;12.70;99.90;;;;;;5072265;28;20179;-75
2020/12/22 04:30:44;;;;;;;3.50;1.33;;;12.70;99.90;;;;;;5070681;28;20583;-75
2020/12/22 04:33:11;;;;;;;1.70;1.20;;;12.70;99.90;;;;;;5069946;28;20709;-75
2020/12/22 04:35:37;;;;;;;2.17;1.50;;;12.70;99.90;;;;;;5069833;28;20818;-75
2020/12/22 04:38:04;;;;;;;1.50;1.40;;;12.70;99.90;;;;;;5072409;28;20438;-75
2020/12/22 04:40:30;;;;;;;1.50;1.40;;;12.70;99.90;;;;;;5070925;28;20278;-75
2020/12/22 04:42:57;;;;;;;1.30;1.20;;;12.70;99.90;;;;;;5069810;28;20507;-75
2020/12/22 04:45:24;;;;;;;1.30;1.20;;;12.70;99.90;;;;;;5069655;28;20430;-75
2020/12/22 04:47:50;;;;;;;1.30;1.03;;;12.70;99.90;;;;;;5074556;28;20943;-75
2020/12/22 04:50:16;;;;;;;1.47;1.00;;;12.70;99.90;;;;;;5068205;28;20429;-75
2020/12/22 04:52:43;;;;;;;4.40;1.03;;;12.80;99.90;;;;;;5056562;28;20443;-75
2020/12/22 04:55:10;;;;;;;1.10;0.97;;;12.80;99.90;;;;;;5070820;28;20187;-75
2020/12/22 04:57:44;;;;;;;1.20;0.90;;;12.80;99.90;;;;;;5068890;28;20457;-75
2020/12/22 05:00:09;;;;;;;1.47;1.13;;;12.80;99.90;;;;;;5070625;28;20438;-75
2020/12/22 05:02:40;;;;;;;1.10;0.80;;;12.80;99.90;;;;;;5072420;28;20448;-75
2020/12/22 05:05:06;;;;;;;1.80;1.40;;;12.80;99.90;;;;;;5073859;28;20271;-75
2020/12/22 05:07:31;;;;;;;1.30;1.20;;;12.90;99.90;;;;;;5077193;28;21006;-75
2020/12/22 05:10:03;;;;;;;1.20;1.10;;;12.90;99.90;;;;;;5057292;28;20187;-75
2020/12/22 05:12:29;;;;;;;2.20;1.07;;;12.90;99.90;;;;;;5070337;28;20496;-75
2020/12/22 05:14:54;;;;;;;2.40;1.20;;;12.90;99.90;;;;;;5069210;28;20445;-75
2020/12/22 05:17:20;;;;;;;1.03;0.93;;;12.90;99.90;;;;;;5073741;28;20223;-74
2020/12/22 05:19:49;;;;;;;1.20;0.93;;;12.90;99.90;;;;;;5073471;28;20632;-75
2020/12/22 05:22:15;;;;;;;2.43;0.90;;;13.00;99.90;;;;;;5076553;28;20183;-75
2020/12/22 05:24:42;;;;;;;2.50;1.00;;;13.00;99.90;;;;;;5071279;28;20445;-75
2020/12/22 05:27:08;;;;;;;3.30;1.27;;;13.00;99.90;;;;;;5050546;28;20549;-75
2020/12/22 05:29:34;;;;;;;1.00;0.90;;;13.00;99.90;;;;;;5070579;28;20444;-75
2020/12/22 05:32:00;;;;;;;1.10;1.00;;;13.00;99.90;;;;;;5071619;28;20437;-75
2020/12/22 05:34:27;;;;;;;3.40;1.50;;;13.00;99.90;;;;;;5074049;28;20444;-75
2020/12/22 05:36:57;;;;;;;1.33;1.13;;;13.00;99.90;;;;;;5072968;28;20204;-75
2020/12/22 05:39:24;;;;;;;1.53;1.00;;;13.00;99.90;;;;;;5073326;28;20437;-75
2020/12/22 05:41:49;;;;;;;1.30;1.20;;;13.00;99.90;;;;;;5073945;28;20442;-75
2020/12/22 05:44:15;;;;;;;1.13;0.97;;;13.00;99.90;;;;;;5055135;28;20773;-75
2020/12/22 05:46:41;;;;;;;1.97;1.00;;;13.00;99.90;;;;;;5077013;28;20194;-75
2020/12/22 05:49:10;;;;;;;1.20;1.10;;;13.00;99.90;;;;;;5057238;28;20191;-75
2020/12/22 05:51:36;;;;;;;1.43;1.27;;;13.00;99.90;;;;;;5057772;28;20513;-75
2020/12/22 05:54:06;;;;;;;1.47;1.03;;;13.00;99.90;;;;;;5060240;28;20548;-75
2020/12/22 05:56:33;;;;;;;3.73;1.00;;;13.00;99.90;;;;;;5072804;28;20267;-75
2020/12/22 05:58:59;;;;;;;1.77;1.43;;;13.10;99.90;;;;;;5076629;28;20802;-75
2020/12/22 06:01:34;;;;;;;2.33;1.07;;;13.00;99.90;;;;;;5072653;28;20445;-75
2020/12/22 06:04:02;;;;;;;1.10;0.97;;;13.10;99.90;;;;;;5077842;28;20797;-75
2020/12/22 06:06:31;;;;;;;1.80;1.17;;;13.00;99.90;;;;;;5074070;28;21102;-75
2020/12/22 06:08:57;;;;;;;1.17;1.03;;;13.10;99.90;;;;;;5072920;28;20507;-75
2020/12/22 06:11:23;;;;;;;1.40;1.00;;;13.00;99.90;;;;;;5076441;28;20426;-75
2020/12/22 06:13:50;;;;;;;2.20;1.40;;;13.00;99.90;;;;;;5073090;28;20441;-75
2020/12/22 06:16:17;;;;;;;1.60;1.13;;;13.00;99.90;;;;;;5072726;28;20469;-75
2020/12/22 06:18:45;;;;;;;3.90;2.00;;;13.00;99.90;;;;;;5082388;28;20464;-75
2020/12/22 06:21:11;;;;;;;2.50;1.90;;;13.00;99.90;;;;;;5054179;28;20473;-75
2020/12/22 06:23:37;;;;;;;1.70;1.60;;;13.00;99.90;;;;;;5059828;28;22457;-75
2020/12/22 06:26:04;;;;;;;3.90;2.53;;;13.00;99.90;;;;;;5072919;28;22025;-75
2020/12/22 06:28:31;;;;;;;1.40;1.30;;;13.00;99.90;;;;;;5073356;28;20469;-75
2020/12/22 06:30:56;;;;;;;1.57;1.47;;;13.00;99.90;;;;;;5071672;28;20486;-75
2020/12/22 06:33:24;;;;;;;2.13;1.53;;;13.00;99.90;;;;;;5074088;28;20441;-75
2020/12/22 06:36:00;;;;;;;1.80;1.70;;;13.00;99.90;;;;;;5073535;28;20243;-75
2020/12/22 06:38:45;;;;;;;2.50;1.70;;;13.00;99.90;;;;;;5073091;28;20436;-75
2020/12/22 06:41:11;;;;;;;3.10;1.40;;;13.00;99.90;;;;;;5079953;28;20928;-75
2020/12/22 06:43:43;;;;;;;1.27;1.17;;;13.00;99.90;;;;;;5053058;28;20500;-75
2020/12/22 06:46:34;;;;;;;1.77;1.60;;;13.00;99.90;;;;;;5058056;28;20786;-75
2020/12/22 06:49:01;;;;;;;1.40;1.27;;;12.90;99.90;;;;;;5056983;28;20544;-75
2020/12/22 06:51:31;;;;;;;1.30;1.20;;;13.00;99.90;;;;;;5074612;28;20441;-75
2020/12/22 06:53:57;;;;;;;1.23;1.07;;;12.90;99.90;;;;;;5059026;28;20527;-75
2020/12/22 06:56:40;;;;;;;1.90;1.60;;;12.90;99.90;;;;;;5054134;28;20995;-75
2020/12/22 06:59:06;;;;;;;2.80;1.70;;;13.00;99.90;;;;;;5071221;28;20437;-75
2020/12/22 07:01:34;;;;;;;3.97;2.50;;;12.90;99.90;;;;;;5072380;28;20572;-75
2020/12/22 07:04:16;;;;;;;1.90;1.30;;;12.90;99.90;;;;;;5054326;28;20497;-75
2020/12/22 07:06:47;;;;;;;2.60;2.10;;;12.90;99.90;;;;;;5055436;28;20436;-75
2020/12/22 07:09:15;;;;;;;2.10;1.40;;;12.90;99.90;;;;;;5053402;28;20535;-75
2020/12/22 07:11:41;;;;;;;2.00;1.40;;;13.00;99.90;;;;;;5070664;28;20441;-75
2020/12/22 07:14:07;;;;;;;2.73;1.60;;;13.00;99.90;;;;;;5071492;28;20506;-75
2020/12/22 07:17:03;;;;;;;1.60;1.20;;;13.00;99.90;;;;;;5074378;28;20206;-75
2020/12/22 07:19:31;;;;;;;2.03;1.60;;;12.90;99.90;;;;;;5077081;28;20476;-75
2020/12/22 07:21:59;;;;;;;2.03;1.47;;;13.00;99.90;;;;;;5077132;28;20918;-75
2020/12/22 07:24:26;;;;;;;3.70;2.20;;;13.00;99.90;;;;;;5074109;28;20429;-75
2020/12/22 07:26:51;;;;;;;1.57;1.47;;;13.00;99.90;;;;;;5055544;28;20430;-75
2020/12/22 07:29:17;;;;;;;3.00;1.67;;;13.00;99.90;;;;;;5057034;28;20445;-75
2020/12/22 07:31:44;;;;;;;1.70;1.60;;;13.00;99.90;;;;;;5072746;28;20564;-75
2020/12/22 07:34:09;;;;;;;2.07;1.87;;;13.00;99.90;;;;;;5071884;28;20199;-75
2020/12/22 07:36:35;;;;;;;3.37;2.00;;;13.00;99.90;;;;;;5070993;28;22542;-75
2020/12/22 07:39:10;;;;;;;3.50;2.20;;;13.00;99.90;;;;;;5071571;28;20201;-75
2020/12/22 07:41:36;;;;;;;4.17;2.30;;;13.00;99.90;;;;;;5071217;28;20441;-75
2020/12/22 07:44:13;;;;;;;3.03;2.03;;;13.00;99.90;;;;;;5052395;28;20445;-75
2020/12/22 07:46:40;;;;;;;2.40;2.03;;;13.00;99.90;;;;;;5074681;28;20589;-75
2020/12/22 07:49:07;;;;;;;3.40;1.60;;;13.00;99.90;;;;;;5072154;28;20503;-75
2020/12/22 07:51:33;;;;;;;2.40;2.20;;;13.00;99.90;;;;;;5058562;28;20956;-75
2020/12/22 07:54:02;;;;;;;2.33;2.13;;;13.00;99.90;;;;;;5052885;28;20441;-75
2020/12/22 07:56:30;;;;;;;5.10;2.50;;;13.00;99.90;;;;;;5069231;28;20611;-75
2020/12/22 07:58:56;;;;;;;3.37;1.80;;;13.00;99.90;;;;;;5051440;28;20437;-75
2020/12/22 08:01:23;;;;;;;2.57;1.50;;;13.00;99.90;;;;;;5071577;28;20956;-75
2020/12/22 08:03:49;;;;;;;2.00;1.50;;;13.00;99.90;;;;;;5070738;28;21001;-75
2020/12/22 08:06:14;;;;;;;6.23;1.43;;;13.00;99.90;;;;;;5052741;28;20564;-75
2020/12/22 08:08:40;;;;;;;3.17;1.30;;;13.00;99.90;;;;;;5070443;28;20205;-75
2020/12/22 08:11:06;;;;;;;2.60;1.30;;;13.00;99.90;;;;;;5073136;28;20253;-75
2020/12/22 08:13:35;;;;;;;2.80;1.50;;;13.00;99.90;;;;;;5051154;28;20301;-74
2020/12/22 08:16:01;;;;;;;1.90;1.50;;;13.00;99.90;;;;;;5074563;28;20493;-74
2020/12/22 08:18:30;;;;;;;7.70;1.90;;;13.00;99.90;;;;;;5066191;28;20520;-75
2020/12/22 08:20:59;;;;;;;2.90;1.93;;;13.00;99.90;;;;;;5071913;28;20530;-75
2020/12/22 08:23:25;;;;;;;2.30;2.10;;;13.00;99.90;;;;;;5075043;28;20446;-74
2020/12/22 08:25:51;;;;;;;3.87;2.30;;;13.10;99.90;;;;;;5048345;28;20532;-74
2020/12/22 08:28:25;;;;;;;3.93;2.53;;;13.00;99.90;;;;;;5073216;28;20529;-74
2020/12/22 08:30:51;;;;;;;2.33;1.67;;;13.10;99.90;;;;;;5052728;28;20445;-75
2020/12/22 08:33:20;;;;;;;2.87;2.10;;;13.10;99.90;;;;;;5072939;28;20465;-74
2020/12/22 08:35:50;;;;;;;3.87;2.23;;;13.10;99.90;;;;;;5069342;28;20464;-74
2020/12/22 08:38:26;;;;;;;3.87;1.77;;;13.10;99.90;;;;;;5068663;28;20524;-75
2020/12/22 08:40:55;;;;;;;2.33;1.70;;;13.10;99.90;;;;;;5069519;28;20516;-75
2020/12/22 08:43:24;;;;;;;3.30;1.70;;;13.10;99.90;;;;;;5073125;28;20430;-75
2020/12/22 08:45:50;;;;;;;4.10;2.20;;;13.10;99.90;;;;;;5051391;28;21183;-74
2020/12/22 08:48:16;;;;;;;3.00;1.70;;;13.10;99.90;;;;;;5060058;28;20433;-74
2020/12/22 08:50:49;;;;;;;2.80;1.53;;;13.20;99.90;;;;;;5052197;28;20976;-75
2020/12/22 08:53:16;;;;;;;3.13;1.60;;;13.20;99.90;;;;;;5075625;28;20241;-75
2020/12/22 08:55:41;;;;;;;2.80;1.83;;;13.20;99.90;;;;;;5053111;28;20476;-75
2020/12/22 08:58:07;;;;;;;2.30;1.50;;;13.20;99.90;;;;;;5069461;28;20449;-75
2020/12/22 09:00:32;;;;;;;3.43;1.80;;;13.20;99.90;;;;;;5069088;28;20211;-75
2020/12/22 09:03:01;;;;;;;2.90;1.43;;;13.20;99.90;;;;;;5067934;28;20184;-75
2020/12/22 09:05:30;;;;;;;1.53;1.37;;;13.20;99.90;;;;;;5056201;28;20533;-75
2020/12/22 09:07:58;;;;;;;2.77;1.30;;;13.20;99.90;;;;;;5073147;28;20433;-75
2020/12/22 09:10:23;;;;;;;1.93;1.13;;;13.20;99.90;;;;;;5075240;28;20533;-75
2020/12/22 09:12:49;;;;;;;3.00;1.20;;;13.20;99.90;;;;;;5077076;28;20524;-75
2020/12/22 09:15:14;;;;;;;1.53;0.90;;;13.30;99.90;;;;;;5073794;28;20198;-75
2020/12/22 09:17:40;;;;;;;4.20;1.43;;;13.30;99.90;;;;;;5080330;28;20288;-75
2020/12/22 09:20:06;;;;;;;5.70;1.43;;;13.30;99.90;;;;;;5081325;28;20269;-75
2020/12/22 09:22:33;;;;;;;1.87;1.40;;;13.30;99.90;;;;;;5057959;28;20203;-75
2020/12/22 09:25:04;;;;;;;1.60;1.50;;;13.30;99.90;;;;;;5073861;28;20445;-75
2020/12/22 09:27:30;;;;;;;4.37;3.10;;;13.30;99.90;;;;;;5082139;28;20436;-75
2020/12/22 09:29:56;;;;;;;4.77;2.63;;;13.40;99.90;;;;;;5077541;28;20429;-75
2020/12/22 09:32:22;;;;;;;2.70;1.63;;;13.40;99.90;;;;;;5074051;28;20456;-75
2020/12/22 09:34:48;;;;;;;2.07;1.73;;;13.50;99.90;;;;;;5056201;28;20446;-75
2020/12/22 09:37:13;;;;;;;3.20;1.70;;;13.60;99.90;;;;;;5054813;28;20541;-75
2020/12/22 09:39:40;;;;;;;2.50;1.70;;;13.60;99.90;;;;;;5073713;28;20190;-75
2020/12/22 09:42:06;;;;;;;3.27;1.97;;;13.60;99.90;;;;;;5055618;28;20712;-75
2020/12/22 09:44:32;;;;;;;2.30;2.10;;;13.60;99.90;;;;;;5082548;28;20941;-75
2020/12/22 09:46:58;;;;;;;2.40;2.20;;;13.60;99.90;;;;;;5072966;28;20449;-75
2020/12/22 09:49:24;;;;;;;3.40;1.70;;;13.60;99.90;;;;;;5075528;28;20817;-75
2020/12/22 09:51:50;;;;;;;2.63;2.00;;;13.80;99.90;;;;;;5077997;28;20458;-75
2020/12/22 09:54:16;;;;;;;2.30;1.50;;;13.80;99.90;;;;;;5075500;28;20444;-75
2020/12/22 09:56:42;;;;;;;2.00;1.30;;;13.90;99.90;;;;;;5075083;28;20791;-75
2020/12/22 09:59:08;;;;;;;1.87;1.47;;;13.90;99.90;;;;;;5075079;28;20195;-75
2020/12/22 10:01:34;;;;;;;1.90;1.37;;;14.00;99.90;;;;;;5074169;28;20445;-75
2020/12/22 10:04:00;;;;;;;1.47;1.20;;;14.00;99.90;;;;;;5073240;28;20812;-75
2020/12/22 10:06:26;;;;;;;2.60;2.40;;;14.00;99.90;;;;;;5073907;28;20241;-75
2020/12/22 10:08:53;;;;;;;2.10;1.60;;;14.00;99.90;;;;;;5071674;28;20699;-75
2020/12/22 10:11:19;;;;;;;2.20;1.30;;;14.00;99.90;;;;;;5077518;28;20442;-75
2020/12/22 10:13:46;;;;;;;2.73;1.17;;;14.10;99.90;;;;;;5077928;28;20487;-75
2020/12/22 10:16:14;;;;;;;2.73;1.30;;;14.10;99.90;;;;;;5070899;28;20573;-75
2020/12/22 10:18:40;;;;;;;1.87;1.10;;;14.20;99.90;;;;;;5065449;28;20499;-75
2020/12/22 10:21:11;;;;;;;1.07;0.80;;;14.20;99.90;;;;;;5054173;28;20954;-75
2020/12/22 10:23:38;;;;;;;1.37;0.77;;;14.20;99.90;;;;;;5076593;28;20453;-75
2020/12/22 10:26:06;;;;;;;1.00;0.80;;;14.10;99.90;;;;;;5072444;28;20441;-75
2020/12/22 10:28:34;;;;;;;1.00;0.80;;;14.10;99.90;;;;;;5080398;28;20438;-75
2020/12/22 10:31:00;;;;;;;1.03;0.80;;;14.10;99.90;;;;;;5072508;28;20465;-75
2020/12/22 10:33:27;;;;;;;1.73;0.80;;;14.10;99.90;;;;;;5072604;28;20453;-75
2020/12/22 10:35:53;;;;;;;1.30;1.03;;;14.20;99.90;;;;;;5072238;28;20499;-75
2020/12/22 10:38:19;;;;;;;2.50;1.00;;;14.20;99.90;;;;;;5072517;28;20460;-75
2020/12/22 10:40:45;;;;;;;2.03;1.10;;;14.20;99.90;;;;;;5072982;28;20441;-75
2020/12/22 10:43:11;;;;;;;1.87;1.40;;;14.30;99.90;;;;;;5072565;28;20473;-75
2020/12/22 10:45:39;;;;;;;1.67;1.00;;;14.30;99.90;;;;;;5070072;28;20398;-75
2020/12/22 10:48:06;;;;;;;4.17;1.30;;;14.30;99.90;;;;;;5080195;28;20604;-75
2020/12/22 10:50:32;;;;;;;2.80;1.23;;;14.20;99.90;;;;;;5054228;28;20545;-75
2020/12/22 10:52:57;;;;;;;2.70;2.50;;;14.20;99.90;;;;;;5076804;28;20446;-75
2020/12/22 10:55:23;;;;;;;1.37;1.27;;;14.20;99.90;;;;;;5053894;28;20469;-75
2020/12/22 10:57:50;;;;;;;1.43;1.33;;;14.20;99.90;;;;;;5070756;28;20198;-75
2020/12/22 11:00:16;;;;;;;3.10;1.70;;;14.30;99.90;;;;;;5072920;28;20861;-75
2020/12/22 11:02:43;;;;;;;2.70;1.67;;;14.30;99.90;;;;;;5072556;28;20444;-75
2020/12/22 11:05:09;;;;;;;2.47;1.50;;;14.30;99.90;;;;;;5073629;28;20995;-75
2020/12/22 11:07:43;;;;;;;2.27;1.40;;;14.30;99.90;;;;;;5072162;28;20497;-75
2020/12/22 11:10:09;;;;;;;1.37;1.27;;;14.30;99.90;;;;;;5072239;28;20277;-75
2020/12/22 11:12:34;;;;;;;1.73;1.23;;;14.30;99.90;;;;;;5075993;28;20523;-75
2020/12/22 11:15:00;;;;;;;1.50;1.40;;;14.30;99.90;;;;;;5054760;28;20324;-75
2020/12/22 11:17:26;;;;;;;2.13;1.47;;;14.30;99.90;;;;;;5075935;28;20205;-75
2020/12/22 11:19:52;;;;;;;3.00;1.40;;;14.20;99.90;;;;;;5072673;28;20268;-75
2020/12/22 11:22:18;;;;;;;2.57;1.77;;;14.20;99.90;;;;;;5078425;28;20493;-75
2020/12/22 11:24:44;;;;;;;2.10;1.80;;;14.30;99.90;;;;;;5071102;28;20957;-75
2020/12/22 11:27:09;;;;;;;1.70;1.60;;;14.30;99.90;;;;;;5056208;28;20471;-75
2020/12/22 11:29:35;;;;;;;2.17;1.97;;;14.30;99.90;;;;;;5077241;28;20217;-75
2020/12/22 11:32:00;;;;;;;2.40;1.73;;;14.40;99.90;;;;;;5071634;28;20634;-75
2020/12/22 11:34:26;;;;;;;2.83;1.63;;;14.40;99.90;;;;;;5071655;28;20553;-75
2020/12/22 11:36:53;;;;;;;1.97;1.10;;;14.40;99.90;;;;;;5071403;28;20246;-75
2020/12/22 11:39:19;;;;;;;3.30;1.13;;;14.50;99.90;;;;;;5075166;28;20270;-75
2020/12/22 11:41:45;;;;;;;3.70;0.70;;;14.50;99.90;;;;;;5069699;28;20812;-75
2020/12/22 11:44:11;;;;;;;1.20;0.80;;;14.50;99.90;;;;;;5053484;28;20450;-75
2020/12/22 11:46:37;;;;;;;1.83;1.17;;;14.60;99.90;;;;;;5073288;28;21003;-75
2020/12/22 11:49:05;;;;;;;2.10;1.07;;;14.60;99.90;;;;;;5062209;28;20403;-75
2020/12/22 11:51:31;;;;;;;3.30;1.60;;;14.50;99.90;;;;;;5073467;28;20199;-75
2020/12/22 11:53:57;;;;;;;1.77;1.40;;;14.50;99.90;;;;;;5072045;28;20895;-75
2020/12/22 11:56:22;;;;;;;2.10;1.13;;;14.50;99.90;;;;;;5071378;28;20242;-74
2020/12/22 11:58:48;;;;;;;1.37;1.10;;;14.50;99.90;;;;;;5071239;28;20193;-74
2020/12/22 12:01:13;;;;;;;2.67;1.60;;;14.50;99.90;;;;;;5070477;28;20210;-75
2020/12/22 12:03:42;;;;;;;2.03;1.00;;;14.60;99.90;;;;;;5052171;28;22185;-74
2020/12/22 12:06:10;;;;;;;1.07;0.90;;;14.60;99.90;;;;;;5075502;28;20242;-75
2020/12/22 12:08:37;;;;;;;1.83;0.90;;;14.60;99.90;;;;;;5071388;28;20534;-75
2020/12/22 12:11:03;;;;;;;1.67;0.70;;;14.60;99.90;;;;;;5069730;28;20440;-75
2020/12/22 12:13:29;;;;;;;1.17;1.00;;;14.60;99.90;;;;;;5070894;28;20442;-75
2020/12/22 12:15:54;;;;;;;1.83;0.97;;;14.60;99.90;;;;;;5052540;28;20540;-75
2020/12/22 12:18:20;;;;;;;4.13;2.40;;;14.60;99.90;;;;;;5080406;28;20217;-74
2020/12/22 12:20:45;;;;;;;3.30;1.50;;;14.50;99.90;;;;;;5053111;28;20204;-74
2020/12/22 12:23:11;;;;;;;3.43;2.37;;;14.50;99.90;;;;;;5075460;28;20184;-74
2020/12/22 12:25:36;;;;;;;1.93;1.50;;;14.50;99.90;;;;;;5069408;28;20191;-74
2020/12/22 12:28:02;;;;;;;1.30;1.10;;;14.50;99.90;;;;;;5070455;28;20190;-74
2020/12/22 12:30:27;;;;;;;3.73;2.63;;;14.40;99.90;;;;;;5070090;28;20184;-74
2020/12/22 12:32:53;;;;;;;1.80;1.50;;;14.30;99.90;;;;;;5073450;28;20229;-74
2020/12/22 12:35:18;;;;;;;2.40;1.63;;;14.30;99.90;;;;;;5071254;28;20179;-74
2020/12/22 12:37:44;;;;;;;2.13;1.93;;;14.30;99.90;;;;;;5071065;28;20215;-75
2020/12/22 12:40:10;;;;;;;1.50;1.20;;;14.30;99.90;;;;;;5076024;28;20237;-75
2020/12/22 12:42:35;;;;;;;2.07;0.77;;;14.30;99.90;;;;;;5058661;28;20192;-74
2020/12/22 12:45:01;;;;;;;4.30;1.10;;;14.30;99.90;;;;;;5060461;28;20659;-74